<?xml version="1.0" encoding="utf-8"?>
<gpx xmlns:xsi="http://www.w3.org/2001/XMLSchema-instance" xmlns:xsd="http://www.w3.org/2001/XMLSchema" version="1.1" creator="Shapelink.com" xmlns="http://www.topografix.com/GPX/1/1" xmlns:gpxtpx="http://www.garmin.com/xmlschemas/TrackPointExtension/v1">
  <metadata>
    <name>Övrigt 1.48 km, 2020-09-05</name>
    <desc></desc>
    <author><name>Marian Moron</name></author> 
    <time>2020-09-05T20:47:26Z</time>
  </metadata>
  <trk>
    <name>Övrigt 1.48 km, 2020-09-05</name>
    <trkseg>
      <trkpt lat="51.230023183085" lon="4.458421625778">
        <ele>2.8</ele>
        <time>2020-09-05T20:47:26Z</time>
      </trkpt>
      <trkpt lat="51.230344377493" lon="4.458873661645">
        <ele>4.6</ele>
        <time>2020-09-05T20:48:04Z</time>
      </trkpt>
      <trkpt lat="51.230597594692" lon="4.459342209855">
        <ele>20</ele>
        <time>2020-09-05T20:49:12Z</time>
      </trkpt>
      <trkpt lat="51.230602707651" lon="4.459422843733">
        <ele>18.2</ele>
        <time>2020-09-05T20:49:18Z</time>
      </trkpt>
      <trkpt lat="51.230730280169" lon="4.459740685381">
        <ele>13.8</ele>
        <time>2020-09-05T20:50:39Z</time>
      </trkpt>
      <trkpt lat="51.230766406158" lon="4.459723586305">
        <ele>14.2</ele>
        <time>2020-09-05T20:50:42Z</time>
      </trkpt>
      <trkpt lat="51.231018617529" lon="4.459630798672">
        <ele>15.4</ele>
        <time>2020-09-05T20:51:14Z</time>
      </trkpt>
      <trkpt lat="51.231095814828" lon="4.459601294384">
        <ele>16</ele>
        <time>2020-09-05T20:51:21Z</time>
      </trkpt>
      <trkpt lat="51.231557322242" lon="4.459531389338">
        <ele>19</ele>
        <time>2020-09-05T20:51:53Z</time>
      </trkpt>
      <trkpt lat="51.231680871448" lon="4.459555696848">
        <ele>17.8</ele>
        <time>2020-09-05T20:52:03Z</time>
      </trkpt>
      <trkpt lat="51.231827219422" lon="4.459551505898">
        <ele>19.6</ele>
        <time>2020-09-05T20:52:47Z</time>
      </trkpt>
      <trkpt lat="51.231960491632" lon="4.459606574981">
        <ele>21.8</ele>
        <time>2020-09-05T20:53:03Z</time>
      </trkpt>
      <trkpt lat="51.232020925131" lon="4.45991427453">
        <ele>15.2</ele>
        <time>2020-09-05T20:53:23Z</time>
      </trkpt>
      <trkpt lat="51.232030480497" lon="4.460081996349">
        <ele>10.2</ele>
        <time>2020-09-05T20:53:32Z</time>
      </trkpt>
      <trkpt lat="51.231942554366" lon="4.46025541786">
        <ele>16.2</ele>
        <time>2020-09-05T20:53:50Z</time>
      </trkpt>
      <trkpt lat="51.23207381492" lon="4.460631513713">
        <ele>14.4</ele>
        <time>2020-09-05T20:54:56Z</time>
      </trkpt>
      <trkpt lat="51.232147910916" lon="4.461058655337">
        <ele>18</ele>
        <time>2020-09-05T20:55:37Z</time>
      </trkpt>
      <trkpt lat="51.232206500397" lon="4.461649495468">
        <ele>28.6</ele>
        <time>2020-09-05T20:56:09Z</time>
      </trkpt>
      <trkpt lat="51.232246565879" lon="4.462049395917">
        <ele>15.6</ele>
        <time>2020-09-05T20:56:42Z</time>
      </trkpt>
      <trkpt lat="51.23223390921" lon="4.462191050027">
        <ele>11</ele>
        <time>2020-09-05T20:56:50Z</time>
      </trkpt>
      <trkpt lat="51.23215176659" lon="4.462624729533">
        <ele>5.2</ele>
        <time>2020-09-05T20:57:10Z</time>
      </trkpt>
      <trkpt lat="51.232088483245" lon="4.463067964405">
        <ele>5.4</ele>
        <time>2020-09-05T20:57:31Z</time>
      </trkpt>
      <trkpt lat="51.232083789381" lon="4.463099145073">
        <ele>5.2</ele>
        <time>2020-09-05T20:57:33Z</time>
      </trkpt>
      <trkpt lat="51.231950936266" lon="4.463469289777">
        <ele>0</ele>
        <time>2020-09-05T20:57:56Z</time>
      </trkpt>
      <trkpt lat="51.231817664056" lon="4.4635712975">
        <ele>0</ele>
        <time>2020-09-05T20:58:13Z</time>
      </trkpt>
      <trkpt lat="51.231605769624" lon="4.463343728915">
        <ele>1.4</ele>
        <time>2020-09-05T20:58:35Z</time>
      </trkpt>
      <trkpt lat="51.231481801323" lon="4.463201990986">
        <ele>1.4</ele>
        <time>2020-09-05T20:58:48Z</time>
      </trkpt>
      <trkpt lat="51.23117695162" lon="4.46308011816">
        <ele>0</ele>
        <time>2020-09-05T20:59:06Z</time>
      </trkpt>
      <trkpt lat="51.23113336574" lon="4.463067964405">
        <ele>0</ele>
        <time>2020-09-05T20:59:09Z</time>
      </trkpt>
      <trkpt lat="51.231100927787" lon="4.463085482576">
        <ele>7.2</ele>
        <time>2020-09-05T20:59:35Z</time>
      </trkpt>
      <trkpt lat="51.23074528377" lon="4.463297041732">
        <ele>44.2</ele>
        <time>2020-09-05T21:00:58Z</time>
      </trkpt>
      <trkpt lat="51.230723407011" lon="4.463311207143">
        <ele>42.4</ele>
        <time>2020-09-05T21:00:59Z</time>
      </trkpt>
      <trkpt lat="51.230305653115" lon="4.463220347347">
        <ele>17</ele>
        <time>2020-09-05T21:01:21Z</time>
      </trkpt>
      <trkpt lat="51.230144636816" lon="4.462936452394">
        <ele>11.6</ele>
        <time>2020-09-05T21:01:37Z</time>
      </trkpt>
      <trkpt lat="51.230115132528" lon="4.462845676417">
        <ele>10</ele>
        <time>2020-09-05T21:01:57Z</time>
      </trkpt>
      <trkpt lat="51.229895191472" lon="4.462229522948">
        <ele>6.6</ele>
        <time>2020-09-05T21:02:32Z</time>
      </trkpt>
      <trkpt lat="51.229814557594" lon="4.46181361307">
        <ele>5.4</ele>
        <time>2020-09-05T21:03:04Z</time>
      </trkpt>
      <trkpt lat="51.229782035822" lon="4.461592666186">
        <ele>4.6</ele>
        <time>2020-09-05T21:03:15Z</time>
      </trkpt>
      <trkpt lat="51.229657732245" lon="4.461177343041">
        <ele>5.6</ele>
        <time>2020-09-05T21:03:37Z</time>
      </trkpt>
      <trkpt lat="51.229631915993" lon="4.461071312006">
        <ele>10</ele>
        <time>2020-09-05T21:03:46Z</time>
      </trkpt>
      <trkpt lat="51.229608865768" lon="4.461041388623">
        <ele>9.6</ele>
        <time>2020-09-05T21:03:49Z</time>
      </trkpt>
      <trkpt lat="51.229589922674" lon="4.460983385875">
        <ele>9.8</ele>
        <time>2020-09-05T21:03:54Z</time>
      </trkpt>
      <trkpt lat="51.229463188346" lon="4.460884563274">
        <ele>9.8</ele>
        <time>2020-09-05T21:04:17Z</time>
      </trkpt>
      <trkpt lat="51.229438377922" lon="4.460795044582">
        <ele>10.4</ele>
        <time>2020-09-05T21:04:26Z</time>
      </trkpt>
      <trkpt lat="51.229244336937" lon="4.460537384976">
        <ele>15.4</ele>
        <time>2020-09-05T21:04:57Z</time>
      </trkpt>
      <trkpt lat="51.229008302633" lon="4.460486087748">
        <ele>13.8</ele>
        <time>2020-09-05T21:05:18Z</time>
      </trkpt>
      <trkpt lat="51.228948539686" lon="4.460462702247">
        <ele>12.2</ele>
        <time>2020-09-05T21:05:24Z</time>
      </trkpt>
      <trkpt lat="51.228809232508" lon="4.460257345697">
        <ele>21.2</ele>
        <time>2020-09-05T21:05:44Z</time>
      </trkpt>
      <trkpt lat="51.228785176455" lon="4.460232199997">
        <ele>22.2</ele>
        <time>2020-09-05T21:05:47Z</time>
      </trkpt>
      <trkpt lat="51.228726503155" lon="4.459907988105">
        <ele>30.6</ele>
        <time>2020-09-05T21:06:12Z</time>
      </trkpt>
      <trkpt lat="51.228572611471" lon="4.459322260933">
        <ele>5.2</ele>
        <time>2020-09-05T21:06:47Z</time>
      </trkpt>
      <trkpt lat="51.228497844923" lon="4.45877852708">
        <ele>4.2</ele>
        <time>2020-09-05T21:07:35Z</time>
      </trkpt>
      <trkpt lat="51.228462389486" lon="4.458222471834">
        <ele>3.8</ele>
        <time>2020-09-05T21:08:10Z</time>
      </trkpt>
      <trkpt lat="51.228665147647" lon="4.458186262026">
        <ele>16.2</ele>
        <time>2020-09-05T21:08:48Z</time>
      </trkpt>
      <trkpt lat="51.2286975856" lon="4.45817838304">
        <ele>16.4</ele>
        <time>2020-09-05T21:08:51Z</time>
      </trkpt>
      <trkpt lat="51.229098743334" lon="4.458116021704">
        <ele>17.8</ele>
        <time>2020-09-05T21:09:49Z</time>
      </trkpt>
      <trkpt lat="51.22953074646" lon="4.457874874441">
        <ele>10.2</ele>
        <time>2020-09-05T21:10:23Z</time>
      </trkpt>
      <trkpt lat="51.229639375884" lon="4.457975708698">
        <ele>0</ele>
        <time>2020-09-05T21:11:13Z</time>
      </trkpt>
    </trkseg>
  </trk>
</gpx>